Summerhill, Pennsylvania
Current Conditions -  °F | °C
As of 2:54 AM on Friday 24 Oct 2014 (Local Time) from KJST Reporting Station
Overcast Overcast  
Wind Chill: 38°   Ceiling: 500
Heat Index: 44°   Visibility: 8mi
Dew Point: 41°   Wind: 13mph
Humidity: 89%   Direction: 310°NW
Pressure: 30.01"   Gusts: NA
Location:  40.38°N, 78.76°W
Report Text: KJST 240654Z AUTO 31011KT 8SM OVC005 07/05 A3001 RMK AO2 CIG 005V009 SLP168 T00670050
Loading
Personal Weather Stations






























Interactive Weather Map
Tropical Storm Tracking
New forecast layout! Learn more

10-Day Weather Forecast

Advertisements
Track Severe Weather on mobile